createdAt,value
2018-07-28T00:00:24.873Z,83.29
2018-07-28T00:01:24.797Z,82.90
2018-07-28T00:02:24.721Z,82.61
2018-07-28T00:03:24.650Z,83.29
2018-07-28T00:04:24.572Z,84.35
2018-07-28T00:05:24.494Z,84.16
2018-07-28T00:06:24.432Z,84.64
2018-07-28T00:07:24.344Z,82.42
2018-07-28T00:08:24.270Z,83.19
2018-07-28T00:09:24.197Z,83.39
2018-07-28T00:10:24.122Z,84.16
2018-07-28T00:11:24.047Z,84.59
2018-07-28T00:12:23.960Z,84.74
2018-07-28T00:13:23.884Z,84.54
2018-07-28T00:14:23.807Z,84.06
2018-07-28T00:15:23.734Z,84.25
2018-07-28T00:16:23.658Z,83.87
2018-07-28T00:17:23.583Z,84.93
2018-07-28T00:18:23.510Z,84.25
2018-07-28T00:19:23.434Z,84.16
2018-07-28T00:20:23.359Z,83.87
2018-07-28T00:21:23.286Z,83.96
2018-07-28T00:22:23.199Z,84.35
2018-07-28T00:23:23.123Z,85.70
2018-07-28T00:24:23.048Z,85.60
2018-07-28T00:25:22.984Z,84.93
2018-07-28T00:26:22.897Z,84.06
2018-07-28T00:27:22.821Z,85.02
2018-07-28T00:28:22.746Z,85.31
2018-07-28T00:29:22.673Z,84.83
2018-07-28T00:30:22.598Z,85.22
2018-07-28T00:31:22.523Z,84.74
2018-07-28T00:32:22.437Z,84.89
2018-07-28T00:33:22.371Z,84.59
2018-07-28T00:34:22.286Z,84.11
2018-07-28T00:35:22.211Z,83.96
2018-07-28T00:36:22.136Z,84.11
2018-07-28T00:37:22.063Z,83.34
2018-07-28T00:38:21.987Z,83.73
2018-07-28T00:39:21.912Z,84.11
2018-07-28T00:40:21.838Z,83.83
2018-07-28T00:41:21.761Z,83.44
2018-07-28T00:42:21.674Z,83.15
2018-07-28T00:43:21.598Z,83.73
2018-07-28T00:44:21.523Z,82.67
2018-07-28T00:45:21.450Z,83.34
2018-07-28T00:46:21.375Z,82.86
2018-07-28T00:47:21.301Z,81.80
2018-07-28T00:48:21.225Z,81.70
2018-07-28T00:49:21.163Z,81.22
2018-07-28T00:50:21.076Z,81.32
2018-07-28T00:51:20.993Z,82.38
2018-07-28T00:52:20.915Z,81.22
2018-07-28T00:53:20.839Z,82.09
2018-07-28T00:54:20.763Z,82.28
2018-07-28T00:55:20.692Z,82.18
2018-07-28T00:56:20.612Z,81.90
2018-07-28T00:57:20.541Z,83.34
2018-07-28T00:58:20.465Z,82.76
2018-07-28T00:59:20.389Z,83.63
2018-07-28T01:00:20.307Z,82.96
2018-07-28T01:01:20.225Z,82.57
2018-07-28T01:02:20.150Z,82.96
2018-07-28T01:03:20.076Z,82.67
2018-07-28T01:04:20.000Z,83.25
2018-07-28T01:05:19.925Z,83.25
2018-07-28T01:06:19.850Z,82.28
2018-07-28T01:07:19.791Z,81.22
2018-07-28T01:08:19.702Z,81.51
2018-07-28T01:09:19.616Z,81.60
2018-07-28T01:10:19.553Z,82.09
2018-07-28T01:11:19.466Z,82.28
2018-07-28T01:12:19.391Z,82.57
2018-07-28T01:13:19.314Z,82.48
2018-07-28T01:14:19.239Z,81.27
2018-07-28T01:15:19.164Z,82.96
2018-07-28T01:16:19.091Z,82.57
2018-07-28T01:17:19.005Z,82.86
2018-07-28T01:18:18.946Z,82.38
2018-07-28T01:19:18.855Z,81.99
2018-07-28T01:20:18.779Z,82.18
2018-07-28T01:21:18.704Z,81.76
2018-07-28T01:22:18.631Z,81.80
2018-07-28T01:23:18.554Z,80.60
2018-07-28T01:24:18.480Z,82.34
2018-07-28T01:25:18.390Z,81.66
2018-07-28T01:26:18.316Z,82.18
2018-07-28T01:27:18.242Z,82.18
2018-07-28T01:28:18.166Z,81.90
2018-07-28T01:29:18.093Z,81.22
2018-07-28T01:30:18.019Z,80.74
2018-07-28T01:31:17.944Z,81.32
2018-07-28T01:32:17.869Z,81.41
2018-07-28T01:33:17.810Z,81.12
2018-07-28T01:34:17.706Z,81.32
2018-07-28T01:35:17.629Z,80.93
2018-07-28T01:36:17.566Z,81.32
2018-07-28T01:37:17.479Z,80.74
2018-07-28T01:38:17.404Z,80.51
2018-07-28T01:39:17.329Z,80.51
2018-07-28T01:40:17.243Z,80.89
2018-07-28T01:41:17.171Z,80.12
2018-07-28T01:42:17.094Z,79.64
2018-07-28T01:43:17.020Z,79.44
2018-07-28T01:44:16.945Z,80.02
2018-07-28T01:45:16.868Z,80.02
2018-07-28T01:46:16.794Z,79.16
2018-07-28T01:47:16.718Z,79.44
2018-07-28T01:48:16.631Z,78.58
2018-07-28T01:49:16.558Z,78.77
2018-07-28T01:50:16.486Z,78.48
2018-07-28T01:51:16.408Z,78.77
2018-07-28T01:52:16.333Z,78.67
2018-07-28T01:53:16.260Z,78.58
2018-07-28T01:54:16.183Z,78.19
2018-07-28T01:55:16.097Z,77.71
2018-07-28T01:56:16.022Z,77.71
2018-07-28T01:57:15.944Z,78.00
2018-07-28T01:58:15.873Z,76.93
2018-07-28T01:59:15.795Z,76.84
2018-07-28T02:00:15.720Z,76.45
2018-07-28T02:01:15.648Z,76.75
2018-07-28T02:02:15.560Z,76.55
2018-07-28T02:03:15.485Z,76.65
2018-07-28T02:04:15.409Z,76.07
2018-07-28T02:05:15.333Z,76.45
2018-07-28T02:06:15.257Z,76.07
2018-07-28T02:07:15.182Z,75.78
2018-07-28T02:08:15.108Z,75.59
2018-07-28T02:09:15.035Z,75.68
2018-07-28T02:10:14.949Z,75.68
2018-07-28T02:11:14.871Z,75.49
2018-07-28T02:12:14.796Z,75.59
2018-07-28T02:13:14.723Z,75.10
2018-07-28T02:14:14.649Z,74.82
2018-07-28T02:15:14.573Z,74.52
2018-07-28T02:16:14.486Z,74.33
2018-07-28T02:17:14.409Z,73.85
2018-07-28T02:18:14.334Z,73.82
2018-07-28T02:19:14.261Z,73.37
2018-07-28T02:20:14.184Z,73.47
2018-07-28T02:21:14.111Z,73.18
2018-07-28T02:22:14.036Z,72.95
2018-07-28T02:23:13.949Z,72.60
2018-07-28T02:24:13.874Z,72.75
2018-07-28T02:25:13.800Z,72.60
2018-07-28T02:26:13.724Z,71.70
2018-07-28T02:27:13.649Z,71.41
2018-07-28T02:28:13.575Z,71.70
2018-07-28T02:29:13.497Z,71.02
2018-07-28T02:30:13.411Z,70.92
2018-07-28T02:31:13.337Z,70.35
2018-07-28T02:32:13.260Z,70.54
2018-07-28T02:33:13.188Z,70.25
2018-07-28T02:34:13.113Z,69.96
2018-07-28T02:35:13.040Z,69.48
2018-07-28T02:36:12.951Z,69.29
2018-07-28T02:37:12.879Z,69.19
2018-07-28T02:38:12.811Z,68.99
2018-07-28T02:39:12.727Z,68.80
2018-07-28T02:40:12.651Z,68.52
2018-07-28T02:41:12.577Z,68.42
2018-07-28T02:42:12.502Z,68.23
2018-07-28T02:43:12.413Z,68.13
2018-07-28T02:44:12.340Z,67.84
2018-07-28T02:45:12.261Z,67.94
2018-07-28T02:46:12.186Z,67.55
2018-07-28T02:47:12.112Z,67.84
2018-07-28T02:48:12.052Z,68.13
2018-07-28T02:49:11.953Z,67.84
2018-07-28T02:50:11.878Z,67.26
2018-07-28T02:51:11.814Z,67.16
2018-07-28T02:52:11.727Z,67.46
2018-07-28T02:53:11.651Z,67.07
2018-07-28T02:54:11.576Z,66.88
2018-07-28T02:55:11.488Z,67.07
2018-07-28T02:56:11.414Z,66.59
2018-07-28T02:57:11.352Z,66.01
2018-07-28T02:58:11.263Z,66.30
2018-07-28T02:59:11.188Z,66.01
2018-07-28T03:00:11.162Z,66.49
2018-07-28T03:01:11.036Z,65.14
2018-07-28T03:02:10.954Z,65.53
2018-07-28T03:03:10.879Z,65.33
2018-07-28T03:04:10.805Z,65.24
2018-07-28T03:05:10.727Z,65.33
2018-07-28T03:06:10.652Z,64.47
2018-07-28T03:07:10.567Z,64.18
2018-07-28T03:08:10.491Z,63.60
2018-07-28T03:09:10.416Z,63.50
2018-07-28T03:10:10.357Z,63.41
2018-07-28T03:11:10.266Z,63.02
2018-07-28T03:12:10.192Z,62.63
2018-07-28T03:13:10.117Z,62.63
2018-07-28T03:14:10.031Z,62.63
2018-07-28T03:15:09.955Z,62.35
2018-07-28T03:16:09.881Z,62.35
2018-07-28T03:17:09.804Z,62.45
2018-07-28T03:18:09.728Z,62.06
2018-07-28T03:19:09.641Z,61.48
2018-07-28T03:20:09.566Z,61.00
2018-07-28T03:21:09.493Z,60.87
2018-07-28T03:22:09.418Z,59.81
2018-07-28T03:23:09.344Z,60.52
2018-07-28T03:24:09.263Z,60.42
2018-07-28T03:25:09.180Z,60.71
2018-07-28T03:26:09.105Z,60.61
2018-07-28T03:27:09.033Z,60.52
2018-07-28T03:28:08.955Z,60.71
2018-07-28T03:29:08.880Z,60.13
2018-07-28T03:30:08.795Z,59.65
2018-07-28T03:31:08.717Z,59.91
2018-07-28T03:32:08.642Z,59.45
2018-07-28T03:33:08.569Z,59.07
2018-07-28T03:34:08.493Z,59.65
2018-07-28T03:35:08.420Z,59.27
2018-07-28T03:36:08.332Z,60.03
2018-07-28T03:37:08.255Z,59.65
2018-07-28T03:38:08.180Z,59.55
2018-07-28T03:39:08.106Z,59.27
2018-07-28T03:40:08.031Z,59.36
2018-07-28T03:41:07.962Z,59.36
2018-07-28T03:42:07.873Z,59.33
2018-07-28T03:43:07.794Z,58.78
2018-07-28T03:44:07.720Z,58.88
2018-07-28T03:45:07.642Z,58.75
2018-07-28T03:46:07.569Z,58.65
2018-07-28T03:47:07.482Z,58.08
2018-07-28T03:48:07.407Z,58.59
2018-07-28T03:49:07.337Z,58.47
2018-07-28T03:50:07.259Z,58.40
2018-07-28T03:51:07.183Z,58.59
2018-07-28T03:52:07.119Z,58.59
2018-07-28T03:53:07.020Z,59.27
2018-07-28T03:54:06.957Z,59.36
2018-07-28T03:55:06.870Z,58.78
2018-07-28T03:56:06.797Z,59.27
2018-07-28T03:57:06.722Z,59.17
2018-07-28T03:58:06.646Z,59.36
2018-07-28T03:59:06.560Z,59.55
2018-07-28T04:00:06.485Z,59.07
2018-07-28T04:01:06.409Z,59.27
2018-07-28T04:02:06.335Z,59.55
2018-07-28T04:03:06.260Z,59.17
2018-07-28T04:04:06.199Z,59.65
2018-07-28T04:05:06.108Z,59.07
2018-07-28T04:06:06.020Z,59.45
2018-07-28T04:07:05.945Z,59.07
2018-07-28T04:08:05.871Z,58.59
2018-07-28T04:09:05.813Z,58.49
2018-07-28T04:10:05.723Z,59.55
2018-07-28T04:11:05.637Z,59.65
2018-07-28T04:12:05.561Z,59.17
2018-07-28T04:13:05.486Z,58.88
2018-07-28T04:14:05.411Z,59.45
2018-07-28T04:15:05.334Z,59.55
2018-07-28T04:16:05.247Z,59.07
2018-07-28T04:17:05.171Z,60.03
2018-07-28T04:18:05.098Z,59.36
2018-07-28T04:19:05.034Z,59.07
2018-07-28T04:20:04.949Z,59.07
2018-07-28T04:21:04.875Z,58.40
2018-07-28T04:22:04.800Z,58.69
2018-07-28T04:23:04.712Z,59.36
2018-07-28T04:24:04.637Z,59.55
2018-07-28T04:25:04.562Z,59.94
2018-07-28T04:26:04.485Z,59.94
2018-07-28T04:27:04.411Z,59.94
2018-07-28T04:28:04.335Z,60.61
2018-07-28T04:29:04.251Z,59.17
2018-07-28T04:30:04.175Z,60.71
2018-07-28T04:31:04.116Z,60.93
2018-07-28T04:32:04.029Z,60.64
2018-07-28T04:33:03.951Z,60.83
2018-07-28T04:34:03.875Z,60.64
2018-07-28T04:35:03.789Z,60.64
2018-07-28T04:36:03.713Z,62.09
2018-07-28T04:37:03.679Z,62.76
2018-07-28T04:38:03.561Z,62.57
2018-07-28T04:39:03.487Z,62.48
2018-07-28T04:40:03.413Z,62.48
2018-07-28T04:41:03.339Z,62.66
2018-07-28T04:42:03.252Z,61.51
2018-07-28T04:43:03.175Z,60.83
2018-07-28T04:44:03.126Z,63.63
2018-07-28T04:45:03.025Z,63.57
2018-07-28T04:46:02.949Z,64.34
2018-07-28T04:47:02.874Z,63.28
2018-07-28T04:48:02.799Z,63.67
2018-07-28T04:49:02.714Z,63.47
2018-07-28T04:50:02.641Z,62.96
2018-07-28T04:51:02.564Z,63.47
2018-07-28T04:52:02.490Z,63.67
2018-07-28T04:53:02.413Z,63.24
2018-07-28T04:54:02.341Z,63.47
2018-07-28T04:55:02.264Z,64.15
2018-07-28T04:56:02.175Z,66.11
2018-07-28T04:57:02.102Z,68.91
2018-07-28T04:58:02.027Z,67.65
2018-07-28T04:59:01.966Z,69.78
2018-07-28T05:00:01.878Z,68.91
2018-07-28T05:01:01.805Z,69.00
2018-07-28T05:02:01.738Z,68.81
2018-07-28T05:03:01.639Z,68.91
2018-07-28T05:04:01.564Z,69.29
2018-07-28T05:05:01.500Z,69.78
2018-07-28T05:06:01.416Z,68.33
2018-07-28T05:07:01.339Z,68.52
2018-07-28T05:08:01.266Z,69.39
2018-07-28T05:09:01.192Z,68.81
2018-07-28T05:10:01.117Z,70.54
2018-07-28T05:11:01.042Z,71.16
2018-07-28T05:12:00.954Z,71.26
2018-07-28T05:13:00.877Z,71.06
2018-07-28T05:14:00.804Z,71.64
2018-07-28T05:15:00.739Z,69.71
2018-07-28T05:16:00.659Z,69.23
2018-07-28T05:17:00.579Z,71.26
2018-07-28T05:18:00.504Z,71.51
2018-07-28T05:19:00.442Z,70.29
2018-07-28T05:20:00.356Z,70.20
2018-07-28T05:21:00.268Z,70.10
2018-07-28T05:22:00.204Z,70.97
2018-07-28T05:23:00.119Z,68.26
2018-07-28T05:24:00.047Z,70.87
2018-07-28T05:24:59.966Z,71.06
2018-07-28T05:25:59.893Z,70.87
2018-07-28T05:26:59.816Z,70.39
2018-07-28T05:27:59.742Z,71.36
2018-07-28T05:28:59.669Z,70.10
2018-07-28T05:29:59.594Z,66.33
2018-07-28T05:30:59.509Z,70.39
2018-07-28T05:31:59.431Z,70.68
2018-07-28T05:32:59.354Z,68.88
2018-07-28T05:33:59.280Z,70.48
2018-07-28T05:34:59.204Z,71.68
2018-07-28T05:35:59.129Z,69.94
2018-07-28T05:36:59.082Z,70.81
2018-07-28T05:37:58.979Z,73.32
2018-07-28T05:38:58.948Z,72.06
2018-07-28T05:39:58.830Z,71.58
2018-07-28T05:40:58.746Z,71.58
2018-07-28T05:41:58.671Z,72.64
2018-07-28T05:42:58.596Z,72.68
2018-07-28T05:43:58.521Z,72.97
2018-07-28T05:44:58.444Z,74.90
2018-07-28T05:45:58.371Z,72.10
2018-07-28T05:46:58.294Z,75.29
2018-07-28T05:47:58.220Z,72.26
2018-07-28T05:48:58.148Z,74.04
2018-07-28T05:49:58.074Z,74.81
2018-07-28T05:50:57.997Z,74.81
2018-07-28T05:51:57.922Z,74.52
2018-07-28T05:52:57.847Z,75.68
2018-07-28T05:53:57.761Z,76.35
2018-07-28T05:54:57.688Z,75.20
2018-07-28T05:55:57.609Z,75.10
2018-07-28T05:56:57.533Z,75.58
2018-07-28T05:57:57.457Z,74.71
2018-07-28T05:58:57.383Z,75.58
2018-07-28T05:59:57.308Z,76.26
2018-07-28T06:00:57.237Z,76.74
2018-07-28T06:01:57.162Z,76.10
2018-07-28T06:02:57.084Z,76.68
2018-07-28T06:03:57.012Z,76.59
2018-07-28T06:04:56.933Z,76.29
2018-07-28T06:05:56.858Z,76.68
2018-07-28T06:06:56.783Z,76.29
2018-07-28T06:07:56.708Z,76.49
2018-07-28T06:08:56.634Z,77.75
2018-07-28T06:09:56.558Z,77.07
2018-07-28T06:10:56.472Z,76.87
2018-07-28T06:11:56.401Z,78.03
2018-07-28T06:12:56.324Z,76.49
2018-07-28T06:13:56.252Z,78.91
2018-07-28T06:14:56.175Z,78.08
2018-07-28T06:15:56.099Z,78.46
2018-07-28T06:16:56.022Z,78.66
2018-07-28T06:17:55.947Z,79.04
2018-07-28T06:18:55.873Z,78.66
2018-07-28T06:19:55.803Z,79.52
2018-07-28T06:20:55.724Z,79.43
2018-07-28T06:21:55.687Z,79.24
2018-07-28T06:22:55.575Z,79.82
2018-07-28T06:23:55.500Z,77.20
2018-07-28T06:24:55.424Z,79.04
2018-07-28T06:25:55.371Z,78.85
2018-07-28T06:26:55.275Z,78.08
2018-07-28T06:27:55.200Z,76.53
2018-07-28T06:28:55.124Z,77.88
2018-07-28T06:29:55.048Z,78.56
2018-07-28T06:30:54.974Z,78.17
2018-07-28T06:31:54.928Z,79.62
2018-07-28T06:32:54.829Z,78.56
2018-07-28T06:33:54.750Z,78.17
2018-07-28T06:34:54.664Z,78.46
2018-07-28T06:35:54.601Z,78.79
2018-07-28T06:36:54.512Z,79.17
2018-07-28T06:37:54.449Z,81.40
2018-07-28T06:38:54.361Z,79.57
2018-07-28T06:39:54.299Z,79.95
2018-07-28T06:40:54.211Z,78.02
2018-07-28T06:41:54.137Z,81.21
2018-07-28T06:42:54.061Z,80.24
2018-07-28T06:43:53.987Z,81.02
2018-07-28T06:44:53.913Z,80.67
2018-07-28T06:45:53.840Z,81.05
2018-07-28T06:46:53.764Z,78.54
2018-07-28T06:47:53.689Z,80.57
2018-07-28T06:48:53.612Z,82.70
2018-07-28T06:49:53.537Z,81.73
2018-07-28T06:50:53.464Z,82.80
2018-07-28T06:51:53.394Z,84.55
2018-07-28T06:52:53.328Z,86.48
2018-07-28T06:53:53.240Z,85.22
2018-07-28T06:54:53.166Z,84.45
2018-07-28T06:55:53.093Z,85.13
2018-07-28T06:56:53.012Z,85.41
2018-07-28T06:57:52.938Z,86.13
2018-07-28T06:58:52.863Z,85.55
2018-07-28T06:59:52.790Z,84.00
2018-07-28T07:00:52.732Z,87.01
2018-07-28T07:01:52.642Z,85.55
2018-07-28T07:02:52.567Z,86.62
2018-07-28T07:03:52.491Z,86.33
2018-07-28T07:04:52.466Z,87.10
2018-07-28T07:05:52.344Z,85.17
2018-07-28T07:06:52.266Z,87.54
2018-07-28T07:07:52.191Z,87.24
2018-07-28T07:08:52.129Z,85.60
2018-07-28T07:09:52.055Z,86.71
2018-07-28T07:10:51.981Z,90.48
2018-07-28T07:11:51.905Z,89.76
2018-07-28T07:12:51.830Z,90.25
2018-07-28T07:13:51.755Z,89.42
2018-07-28T07:14:51.681Z,90.73
2018-07-28T07:15:51.606Z,89.23
2018-07-28T07:16:51.529Z,91.27
2018-07-28T07:17:51.453Z,91.60
2018-07-28T07:18:51.387Z,92.28
2018-07-28T07:19:51.304Z,92.28
2018-07-28T07:20:51.236Z,91.75
2018-07-28T07:21:51.158Z,91.94
2018-07-28T07:22:51.080Z,91.07
2018-07-28T07:23:51.006Z,92.82
2018-07-28T07:24:50.996Z,92.52
2018-07-28T07:25:50.870Z,92.18
2018-07-28T07:26:50.791Z,91.41
2018-07-28T07:27:50.718Z,92.71
2018-07-28T07:28:50.654Z,93.49
2018-07-28T07:29:50.579Z,93.05
2018-07-28T07:30:50.495Z,93.10
2018-07-28T07:31:50.417Z,93.01
2018-07-28T07:32:50.344Z,92.76
2018-07-28T07:33:50.271Z,92.71
2018-07-28T07:34:50.196Z,92.51
2018-07-28T07:35:50.132Z,91.97
2018-07-28T07:36:50.056Z,90.56
2018-07-28T07:37:49.981Z,88.13
2018-07-28T07:38:49.905Z,87.39
2018-07-28T07:39:49.832Z,84.22
2018-07-28T07:40:49.771Z,83.54
2018-07-28T07:41:49.744Z,82.70
2018-07-28T07:42:49.620Z,81.73
2018-07-28T07:43:49.546Z,79.92
2018-07-28T07:44:49.484Z,77.00
2018-07-28T07:45:49.408Z,74.98
2018-07-28T07:46:49.361Z,73.82
2018-07-28T07:47:49.270Z,72.58
2018-07-28T07:48:49.208Z,72.58
2018-07-28T07:49:49.118Z,72.19
2018-07-28T07:50:49.056Z,72.29
2018-07-28T07:51:48.984Z,70.57
2018-07-28T07:52:48.920Z,71.25
2018-07-28T07:53:48.897Z,68.75
2018-07-28T07:54:48.771Z,68.19
2018-07-28T07:55:48.710Z,68.52
2018-07-28T07:56:48.633Z,65.46
2018-07-28T07:57:48.569Z,66.21
2018-07-28T07:58:48.496Z,68.42
2018-07-28T07:59:48.433Z,68.16
2018-07-28T08:00:48.358Z,67.80
2018-07-28T08:01:48.296Z,66.53
2018-07-28T08:02:48.221Z,67.12
2018-07-28T08:03:48.159Z,66.50
2018-07-28T08:04:48.150Z,65.72
2018-07-28T08:05:48.023Z,68.13
2018-07-28T08:06:47.960Z,68.13
2018-07-28T08:07:47.888Z,69.73
2018-07-28T08:08:47.821Z,67.44
2018-07-28T08:09:47.748Z,68.71
2018-07-28T08:10:47.685Z,67.97
2018-07-28T08:11:47.621Z,67.48
2018-07-28T08:12:47.625Z,66.60
2018-07-28T08:13:47.486Z,66.17
2018-07-28T08:14:47.412Z,66.60
2018-07-28T08:15:47.349Z,66.99
2018-07-28T08:16:47.286Z,66.05
2018-07-28T08:17:47.212Z,67.12
2018-07-28T08:18:47.151Z,65.39
2018-07-28T08:19:47.087Z,63.50
2018-07-28T08:20:47.009Z,62.13
2018-07-28T08:21:46.948Z,62.55
2018-07-28T08:22:46.873Z,62.82
2018-07-28T08:23:46.812Z,62.52
2018-07-28T08:24:46.757Z,61.96
2018-07-28T08:25:46.689Z,61.80
2018-07-28T08:26:46.621Z,61.68
2018-07-28T08:27:46.550Z,62.63
2018-07-28T08:28:46.488Z,64.29
2018-07-28T08:29:46.413Z,63.80
2018-07-28T08:30:46.348Z,63.44
2018-07-28T08:31:46.287Z,63.47
2018-07-28T08:32:46.213Z,62.98
2018-07-28T08:33:46.149Z,62.62
2018-07-28T08:34:46.087Z,62.62
2018-07-28T08:35:46.013Z,61.60
2018-07-28T08:36:45.952Z,60.23
2018-07-28T08:37:45.939Z,59.25
2018-07-28T08:38:45.840Z,58.83
2018-07-28T08:39:45.751Z,59.84
2018-07-28T08:40:45.690Z,58.98
2018-07-28T08:41:45.638Z,57.48
2018-07-28T08:42:45.552Z,57.18
2018-07-28T08:43:45.488Z,56.76
2018-07-28T08:44:45.440Z,57.68
2018-07-28T08:45:45.369Z,57.76
2018-07-28T08:46:45.302Z,58.12
2018-07-28T08:47:45.243Z,59.09
2018-07-28T08:48:45.223Z,60.05
2018-07-28T08:49:45.103Z,60.44
2018-07-28T08:50:45.041Z,59.69
2018-07-28T08:51:44.972Z,60.34
2018-07-28T08:52:44.914Z,61.22
2018-07-28T08:53:44.842Z,60.34
2018-07-28T08:54:44.800Z,60.76
2018-07-28T08:55:44.702Z,59.66
2018-07-28T08:56:44.642Z,60.31
2018-07-28T08:57:44.579Z,61.29
2018-07-28T08:58:44.505Z,61.15
2018-07-28T08:59:44.441Z,60.34
2018-07-28T09:00:44.377Z,60.77
2018-07-28T09:01:44.315Z,61.25
2018-07-28T09:02:44.252Z,61.45
2018-07-28T09:03:44.177Z,60.31
2018-07-28T09:04:44.118Z,61.13
2018-07-28T09:05:44.055Z,61.72
2018-07-28T09:06:43.981Z,61.84
2018-07-28T09:07:43.919Z,61.16
2018-07-28T09:08:43.853Z,61.33
2018-07-28T09:09:43.791Z,62.21
2018-07-28T09:10:43.774Z,61.84
2018-07-28T09:11:43.653Z,61.22
2018-07-28T09:12:43.592Z,61.19
2018-07-28T09:13:43.530Z,59.75
2018-07-28T09:14:43.468Z,59.33
2018-07-28T09:15:43.394Z,59.79
2018-07-28T09:16:43.328Z,59.59
2018-07-28T09:17:43.270Z,60.21
2018-07-28T09:18:43.197Z,61.29
2018-07-28T09:19:43.128Z,59.04
2018-07-28T09:20:43.066Z,58.55
2018-07-28T09:21:43.004Z,58.55
2018-07-28T09:22:42.929Z,59.27
2018-07-28T09:23:42.868Z,57.73
2018-07-28T09:24:42.806Z,57.73
2018-07-28T09:25:42.732Z,57.99
2018-07-28T09:26:42.672Z,58.91
2018-07-28T09:27:42.607Z,58.36
2018-07-28T09:28:42.544Z,57.60
2018-07-28T09:29:42.467Z,57.14
2018-07-28T09:30:42.459Z,56.56
2018-07-28T09:31:42.343Z,55.41
2018-07-28T09:32:42.281Z,54.52
2018-07-28T09:33:42.220Z,54.06
2018-07-28T09:34:42.145Z,53.72
2018-07-28T09:35:42.082Z,53.96
2018-07-28T09:36:42.022Z,53.77
2018-07-28T09:37:42.027Z,54.75
2018-07-28T09:38:41.882Z,53.47
2018-07-28T09:39:41.833Z,53.45
2018-07-28T09:40:41.769Z,55.71
2018-07-28T09:41:41.694Z,56.06
2018-07-28T09:42:41.630Z,55.16
2018-07-28T09:43:41.569Z,54.96
2018-07-28T09:44:41.496Z,54.67
2018-07-28T09:45:41.433Z,54.25
2018-07-28T09:46:41.371Z,56.27
2018-07-28T09:47:41.297Z,56.40
2018-07-28T09:48:41.234Z,57.15
2018-07-28T09:49:41.170Z,56.47
2018-07-28T09:50:41.127Z,57.52
2018-07-28T09:51:41.033Z,57.32
2018-07-28T09:52:40.970Z,57.71
2018-07-28T09:53:40.912Z,57.35
2018-07-28T09:54:40.832Z,56.84
2018-07-28T09:55:40.771Z,57.81
2018-07-28T09:56:40.711Z,57.25
2018-07-28T09:57:40.635Z,57.35
2018-07-28T09:58:40.575Z,57.93
2018-07-28T09:59:40.510Z,57.52
2018-07-28T10:00:40.433Z,57.62
2018-07-28T10:01:40.371Z,56.74
2018-07-28T10:02:40.309Z,57.32
2018-07-28T10:03:40.239Z,57.52
2018-07-28T10:04:40.174Z,56.96
2018-07-28T10:05:40.192Z,55.47
2018-07-28T10:06:40.036Z,56.96
2018-07-28T10:07:39.978Z,56.96
2018-07-28T10:08:39.904Z,57.54
2018-07-28T10:09:39.836Z,57.57
2018-07-28T10:10:39.761Z,58.09
2018-07-28T10:11:39.699Z,57.34
2018-07-28T10:12:39.622Z,57.36
2018-07-28T10:13:39.559Z,55.18
2018-07-28T10:14:39.484Z,54.96
2018-07-28T10:15:39.423Z,55.59
2018-07-28T10:16:39.364Z,55.98
2018-07-28T10:17:39.287Z,56.15
2018-07-28T10:18:39.224Z,56.61
2018-07-28T10:19:39.150Z,56.84
2018-07-28T10:20:39.085Z,56.37
2018-07-28T10:21:39.011Z,57.57
2018-07-28T10:22:38.948Z,56.18
2018-07-28T10:23:38.874Z,55.59
2018-07-28T10:24:38.821Z,57.45
2018-07-28T10:25:38.735Z,57.15
2018-07-28T10:26:38.675Z,56.37
2018-07-28T10:27:38.598Z,55.88
2018-07-28T10:28:38.541Z,56.96
2018-07-28T10:29:38.467Z,56.86
2018-07-28T10:30:38.402Z,55.88
2018-07-28T10:31:38.328Z,55.96
2018-07-28T10:32:38.261Z,55.86
2018-07-28T10:33:38.186Z,56.54
2018-07-28T10:34:38.124Z,56.57
2018-07-28T10:35:38.053Z,56.60
2018-07-28T10:36:38.021Z,56.01
2018-07-28T10:37:37.914Z,55.94
2018-07-28T10:38:37.852Z,54.05
2018-07-28T10:39:37.780Z,54.74
2018-07-28T10:40:37.714Z,53.96
2018-07-28T10:41:37.639Z,54.57
2018-07-28T10:42:37.580Z,54.05
2018-07-28T10:43:37.502Z,54.74
2018-07-28T10:44:37.438Z,55.26
2018-07-28T10:45:37.397Z,55.65
2018-07-28T10:46:37.302Z,54.50
2018-07-28T10:47:37.229Z,55.71
2018-07-28T10:48:37.165Z,56.08
2018-07-28T10:49:37.090Z,55.71
2018-07-28T10:50:37.029Z,55.52
2018-07-28T10:51:36.954Z,53.59
2018-07-28T10:52:36.891Z,53.39
2018-07-28T10:53:36.813Z,53.42
2018-07-28T10:54:36.752Z,52.59
2018-07-28T10:55:36.707Z,52.64
2018-07-28T10:56:36.614Z,51.27
2018-07-28T10:57:36.552Z,50.49
2018-07-28T10:58:36.480Z,50.39
2018-07-28T10:59:36.403Z,50.37
2018-07-28T11:00:36.344Z,52.23
2018-07-28T11:01:36.268Z,51.22
2018-07-28T11:02:36.205Z,52.64
2018-07-28T11:03:36.142Z,50.39
2018-07-28T11:04:36.065Z,48.96
2018-07-28T11:05:36.003Z,48.47
2018-07-28T11:06:35.928Z,48.45
2018-07-28T11:07:35.865Z,46.90
2018-07-28T11:08:35.806Z,45.47
2018-07-28T11:09:35.742Z,46.18
2018-07-28T11:10:35.667Z,45.17
2018-07-28T11:11:35.606Z,43.99
2018-07-28T11:12:35.540Z,44.70
2018-07-28T11:14:35.404Z,45.38
2018-07-28T11:15:35.344Z,46.91
2018-07-28T11:16:35.280Z,47.57
2018-07-28T11:17:35.218Z,47.96
2018-07-28T11:18:35.160Z,49.29
2018-07-28T11:19:35.093Z,51.12
2018-07-28T11:20:35.030Z,51.07
2018-07-28T11:21:34.955Z,52.34
2018-07-28T11:22:34.933Z,52.12
2018-07-28T11:23:34.829Z,53.39
2018-07-28T11:24:34.769Z,53.88
2018-07-28T11:25:34.695Z,54.44
2018-07-28T11:26:34.632Z,54.57
2018-07-28T11:27:34.569Z,52.76
2018-07-28T11:28:34.509Z,51.20
2018-07-28T11:29:34.434Z,51.32
2018-07-28T11:30:34.369Z,51.32
2018-07-28T11:31:34.347Z,51.44
2018-07-28T11:32:34.243Z,50.56
2018-07-28T11:33:34.169Z,51.00
2018-07-28T11:34:34.107Z,51.20
2018-07-28T11:35:34.043Z,51.32
2018-07-28T11:36:33.983Z,51.44
2018-07-28T11:37:33.909Z,50.22
2018-07-28T11:38:33.845Z,50.32
2018-07-28T11:39:33.784Z,50.12
2018-07-28T11:40:33.708Z,49.77
2018-07-28T11:41:33.643Z,48.62
2018-07-28T11:42:33.583Z,48.62
2018-07-28T11:43:33.532Z,46.68
2018-07-28T11:44:33.445Z,46.97
2018-07-28T11:45:33.382Z,47.03
2018-07-28T11:46:33.324Z,47.05
2018-07-28T11:47:33.258Z,47.17
2018-07-28T11:48:33.199Z,48.30
2018-07-28T11:49:33.122Z,46.93
2018-07-28T11:50:33.060Z,47.59
2018-07-28T11:51:32.997Z,48.50
2018-07-28T11:52:32.933Z,47.83
2018-07-28T11:53:32.869Z,47.05
2018-07-28T11:54:32.796Z,47.61
2018-07-28T11:55:32.733Z,48.11
2018-07-28T11:56:32.672Z,47.66
2018-07-28T11:57:32.611Z,47.29
2018-07-28T11:58:32.646Z,46.28
2018-07-28T11:59:32.473Z,47.00
2018-07-28T12:00:32.422Z,45.23
2018-07-28T12:01:32.361Z,43.99
2018-07-28T12:02:32.287Z,43.54
2018-07-28T12:03:32.223Z,43.77
2018-07-28T12:04:32.159Z,44.19
2018-07-28T12:05:32.089Z,43.99
2018-07-28T12:06:32.021Z,44.11
2018-07-28T12:07:31.959Z,43.23
2018-07-28T12:08:31.899Z,42.36
2018-07-28T12:09:31.836Z,42.44
2018-07-28T12:10:31.762Z,44.38
2018-07-28T12:11:31.700Z,44.29
2018-07-28T12:12:31.689Z,42.86
2018-07-28T12:13:31.572Z,44.64
2018-07-28T12:14:31.510Z,44.98
2018-07-28T12:15:31.460Z,46.34
2018-07-28T12:16:31.392Z,45.92
2018-07-28T12:17:31.330Z,45.73
2018-07-28T12:18:31.296Z,46.73
2018-07-28T12:19:31.187Z,47.32
2018-07-28T12:20:31.123Z,45.85
2018-07-28T12:21:31.062Z,45.77
2018-07-28T12:22:30.997Z,46.26
2018-07-28T12:23:30.936Z,46.85
2018-07-28T12:24:30.863Z,45.50
2018-07-28T12:25:30.799Z,45.64
2018-07-28T12:26:30.739Z,42.41
2018-07-28T12:27:30.676Z,41.86
2018-07-28T12:28:30.612Z,40.94
2018-07-28T12:29:30.548Z,41.35
2018-07-28T12:30:30.474Z,42.71
2018-07-28T12:31:30.412Z,42.57
2018-07-28T12:32:30.350Z,42.46
2018-07-28T12:33:30.290Z,41.31
2018-07-28T12:34:30.230Z,41.35
2018-07-28T12:35:30.162Z,41.47
2018-07-28T12:36:30.103Z,40.88
2018-07-28T12:37:30.028Z,41.04
2018-07-28T12:38:29.964Z,40.98
2018-07-28T12:39:29.904Z,41.08
2018-07-28T12:40:29.837Z,40.78
2018-07-28T12:41:29.775Z,40.09
2018-07-28T12:42:29.714Z,40.33
2018-07-28T12:43:29.649Z,40.86
2018-07-28T12:44:29.591Z,40.58
2018-07-28T12:45:29.527Z,41.33
2018-07-28T12:46:29.453Z,41.47
2018-07-28T12:47:29.391Z,42.77
2018-07-28T12:48:29.328Z,41.43
2018-07-28T12:49:29.279Z,40.78
2018-07-28T12:50:29.202Z,40.96
2018-07-28T12:51:29.141Z,41.45
2018-07-28T12:52:29.079Z,42.69